sensor_id;sensor_type;location;lat;lon;timestamp;pressure;altitude;pressure_sealevel;temperature;humidity
77281;BME280;66339;47.262;17.144;2023-03-23T00:02:10;99925.75;;;20.82;44.47
77281;BME280;66339;47.262;17.144;2023-03-23T00:04:42;99922.28;;;20.81;44.52
77281;BME280;66339;47.262;17.144;2023-03-23T00:07:12;99925.25;;;20.80;44.47
77281;BME280;66339;47.262;17.144;2023-03-23T00:09:37;99909.94;;;20.80;44.49
77281;BME280;66339;47.262;17.144;2023-03-23T00:12:15;99914.50;;;20.80;44.49
77281;BME280;66339;47.262;17.144;2023-03-23T00:14:41;99911.31;;;20.78;44.61
77281;BME280;66339;47.262;17.144;2023-03-23T00:17:08;99919.38;;;20.78;44.54
77281;BME280;66339;47.262;17.144;2023-03-23T00:19:38;99912.94;;;20.79;44.50
77281;BME280;66339;47.262;17.144;2023-03-23T00:22:07;99917.25;;;20.75;44.56
77281;BME280;66339;47.262;17.144;2023-03-23T00:24:32;99910.31;;;20.74;44.62
77281;BME280;66339;47.262;17.144;2023-03-23T00:27:01;99916.78;;;20.73;44.62
77281;BME280;66339;47.262;17.144;2023-03-23T00:29:30;99907.63;;;20.74;44.63
77281;BME280;66339;47.262;17.144;2023-03-23T00:31:58;99914.88;;;20.73;44.58
77281;BME280;66339;47.262;17.144;2023-03-23T00:34:27;99904.91;;;20.74;44.60
77281;BME280;66339;47.262;17.144;2023-03-23T00:36:57;99917.06;;;20.71;44.65
77281;BME280;66339;47.262;17.144;2023-03-23T00:39:25;99913.56;;;20.71;44.67
77281;BME280;66339;47.262;17.144;2023-03-23T00:41:56;99905.50;;;20.71;44.65
77281;BME280;66339;47.262;17.144;2023-03-23T00:44:21;99910.88;;;20.71;44.62
77281;BME280;66339;47.262;17.144;2023-03-23T00:46:51;99902.31;;;20.69;44.63
77281;BME280;66339;47.262;17.144;2023-03-23T00:49:19;99900.75;;;20.68;44.62
77281;BME280;66339;47.262;17.144;2023-03-23T00:51:46;99896.94;;;20.69;44.64
77281;BME280;66339;47.262;17.144;2023-03-23T00:54:12;99887.31;;;20.68;44.65
77281;BME280;66339;47.262;17.144;2023-03-23T00:56:38;99886.50;;;20.67;44.71
77281;BME280;66339;47.262;17.144;2023-03-23T00:59:09;99887.31;;;20.68;44.75
77281;BME280;66339;47.262;17.144;2023-03-23T01:01:37;99876.34;;;20.64;44.74
77281;BME280;66339;47.262;17.144;2023-03-23T01:04:07;99879.81;;;20.65;44.69
77281;BME280;66339;47.262;17.144;2023-03-23T01:06:40;99875.25;;;20.65;44.67
77281;BME280;66339;47.262;17.144;2023-03-23T01:09:17;99871.75;;;20.65;44.65
77281;BME280;66339;47.262;17.144;2023-03-23T01:11:44;99866.66;;;20.63;44.68
77281;BME280;66339;47.262;17.144;2023-03-23T01:14:12;99862.69;;;20.61;44.72
77281;BME280;66339;47.262;17.144;2023-03-23T01:16:38;99866.47;;;20.59;44.82
77281;BME280;66339;47.262;17.144;2023-03-23T01:19:07;99859.50;;;20.58;44.74
77281;BME280;66339;47.262;17.144;2023-03-23T01:21:34;99863.78;;;20.59;44.72
77281;BME280;66339;47.262;17.144;2023-03-23T01:24:00;99868.06;;;20.61;44.72
77281;BME280;66339;47.262;17.144;2023-03-23T01:26:29;99862.19;;;20.58;44.71
77281;BME280;66339;47.262;17.144;2023-03-23T01:28:55;99862.97;;;20.59;44.73
77281;BME280;66339;47.262;17.144;2023-03-23T01:31:23;99855.72;;;20.59;44.68
77281;BME280;66339;47.262;17.144;2023-03-23T01:33:51;99864.87;;;20.58;44.66
77281;BME280;66339;47.262;17.144;2023-03-23T01:36:25;99859.50;;;20.58;44.64
77281;BME280;66339;47.262;17.144;2023-03-23T01:38:52;99860.28;;;20.59;44.63
77281;BME280;66339;47.262;17.144;2023-03-23T01:41:54;99857.91;;;20.57;44.65
77281;BME280;66339;47.262;17.144;2023-03-23T01:46:49;99845.56;;;20.56;44.70
77281;BME280;66339;47.262;17.144;2023-03-23T01:49:25;99850.16;;;20.56;44.69
77281;BME280;66339;47.262;17.144;2023-03-23T01:51:55;99850.94;;;20.56;44.72
77281;BME280;66339;47.262;17.144;2023-03-23T01:54:23;99847.72;;;20.54;44.75
77281;BME280;66339;47.262;17.144;2023-03-23T01:57:02;99849.34;;;20.55;44.67
77281;BME280;66339;47.262;17.144;2023-03-23T01:59:29;99846.16;;;20.53;44.79
77281;BME280;66339;47.262;17.144;2023-03-23T02:01:56;99848.31;;;20.51;44.80
77281;BME280;66339;47.262;17.144;2023-03-23T02:04:24;99853.69;;;20.51;44.78
77281;BME280;66339;47.262;17.144;2023-03-23T02:06:54;99856.09;;;20.53;44.78
77281;BME280;66339;47.262;17.144;2023-03-23T02:09:20;99852.09;;;20.50;44.74
77281;BME280;66339;47.262;17.144;2023-03-23T02:11:49;99848.31;;;20.51;44.79
77281;BME280;66339;47.262;17.144;2023-03-23T02:14:19;99858.03;;;20.47;44.87
77281;BME280;66339;47.262;17.144;2023-03-23T02:28:47;99853.25;;;20.44;44.86
77281;BME280;66339;47.262;17.144;2023-03-23T02:36:50;99854.31;;;20.43;44.87
77281;BME280;66339;47.262;17.144;2023-03-23T02:39:29;99858.13;;;20.42;44.88
77281;BME280;66339;47.262;17.144;2023-03-23T02:42:02;99859.22;;;20.41;44.88
77281;BME280;66339;47.262;17.144;2023-03-23T02:44:34;99860.31;;;20.40;44.96
77281;BME280;66339;47.262;17.144;2023-03-23T02:47:15;99859.50;;;20.40;44.88
77281;BME280;66339;47.262;17.144;2023-03-23T02:49:48;99866.75;;;20.39;44.90
77281;BME280;66339;47.262;17.144;2023-03-23T02:52:26;99868.62;;;20.39;44.91
77281;BME280;66339;47.262;17.144;2023-03-23T02:54:57;99870.53;;;20.38;44.88
77281;BME280;66339;47.262;17.144;2023-03-23T02:57:27;99874.31;;;20.37;44.84
77281;BME280;66339;47.262;17.144;2023-03-23T02:59:57;99876.47;;;20.35;44.99
77281;BME280;66339;47.262;17.144;2023-03-23T03:07:49;99871.91;;;20.35;44.80
77281;BME280;66339;47.262;17.144;2023-03-23T03:16:24;99876.47;;;20.35;44.88
77281;BME280;66339;47.262;17.144;2023-03-23T03:18:57;99870.31;;;20.34;44.83
77281;BME280;66339;47.262;17.144;2023-03-23T03:21:33;99873.31;;;20.33;44.82
77281;BME280;66339;47.262;17.144;2023-03-23T03:24:05;99879.78;;;20.32;44.88
77281;BME280;66339;47.262;17.144;2023-03-23T03:26:32;99874.41;;;20.32;44.87
77281;BME280;66339;47.262;17.144;2023-03-23T03:29:02;99880.84;;;20.31;44.88
77281;BME280;66339;47.262;17.144;2023-03-23T03:31:33;99880.84;;;20.31;44.92
77281;BME280;66339;47.262;17.144;2023-03-23T03:34:05;99876.06;;;20.28;44.96
77281;BME280;66339;47.262;17.144;2023-03-23T03:36:33;99884.63;;;20.30;44.93
77281;BME280;66339;47.262;17.144;2023-03-23T03:39:03;99890.00;;;20.30;44.90
77281;BME280;66339;47.262;17.144;2023-03-23T03:41:29;99892.19;;;20.28;44.96
77281;BME280;66339;47.262;17.144;2023-03-23T03:43:56;99883.84;;;20.29;44.95
77281;BME280;66339;47.262;17.144;2023-03-23T03:46:21;99889.50;;;20.28;44.95
77281;BME280;66339;47.262;17.144;2023-03-23T03:48:50;99892.75;;;20.25;45.02
77281;BME280;66339;47.262;17.144;2023-03-23T03:51:16;99887.41;;;20.25;45.10
77281;BME280;66339;47.262;17.144;2023-03-23T03:53:48;99890.56;;;20.27;44.90
77281;BME280;66339;47.262;17.144;2023-03-23T03:56:17;99894.34;;;20.26;44.99
77281;BME280;66339;47.262;17.144;2023-03-23T03:58:46;99890.88;;;20.25;44.97
77281;BME280;66339;47.262;17.144;2023-03-23T04:01:14;99887.41;;;20.25;44.98
77281;BME280;66339;47.262;17.144;2023-03-23T04:03:41;99898.12;;;20.25;44.97
77281;BME280;66339;47.262;17.144;2023-03-23T04:06:10;99889.28;;;20.24;44.97
77281;BME280;66339;47.262;17.144;2023-03-23T04:08:36;99891.16;;;20.24;44.92
77281;BME280;66339;47.262;17.144;2023-03-23T04:11:05;99899.50;;;20.22;44.92
77281;BME280;66339;47.262;17.144;2023-03-23T04:13:31;99894.34;;;20.26;44.86
77281;BME280;66339;47.262;17.144;2023-03-23T04:16:02;99891.16;;;20.24;44.85
77281;BME280;66339;47.262;17.144;2023-03-23T04:18:30;99888.75;;;20.22;44.97
77281;BME280;66339;47.262;17.144;2023-03-23T04:20:56;99893.34;;;20.22;44.87
77281;BME280;66339;47.262;17.144;2023-03-23T04:23:22;99891.44;;;20.22;44.80
77281;BME280;66339;47.262;17.144;2023-03-23T04:25:52;99884.19;;;20.23;44.84
77281;BME280;66339;47.262;17.144;2023-03-23T04:28:19;99882.59;;;20.22;44.81
77281;BME280;66339;47.262;17.144;2023-03-23T04:30:46;99880.41;;;20.24;44.76
77281;BME280;66339;47.262;17.144;2023-03-23T04:33:14;99883.69;;;20.21;44.85
77281;BME280;66339;47.262;17.144;2023-03-23T04:35:42;99884.75;;;20.20;44.82
77281;BME280;66339;47.262;17.144;2023-03-23T04:38:08;99887.97;;;20.22;44.84
77281;BME280;66339;47.262;17.144;2023-03-23T04:40:42;99882.06;;;20.20;44.81
77281;BME280;66339;47.262;17.144;2023-03-23T04:43:08;99881.59;;;20.18;44.93
77281;BME280;66339;47.262;17.144;2023-03-23T04:45:35;99879.19;;;20.16;44.93
77281;BME280;66339;47.262;17.144;2023-03-23T04:48:04;99880.00;;;20.17;44.92
77281;BME280;66339;47.262;17.144;2023-03-23T04:50:39;99883.16;;;20.19;44.94
77281;BME280;66339;47.262;17.144;2023-03-23T04:53:11;99885.38;;;20.17;44.93
77281;BME280;66339;47.262;17.144;2023-03-23T04:55:40;99885.94;;;20.14;44.99
77281;BME280;66339;47.262;17.144;2023-03-23T04:58:13;99875.19;;;20.14;44.91
77281;BME280;66339;47.262;17.144;2023-03-23T05:00:39;99882.16;;;20.15;44.97
77281;BME280;66339;47.262;17.144;2023-03-23T05:03:10;99878.97;;;20.13;45.00
77281;BME280;66339;47.262;17.144;2023-03-23T05:05:42;99873.59;;;20.13;44.88
77281;BME280;66339;47.262;17.144;2023-03-23T05:08:11;99878.97;;;20.13;44.84
77281;BME280;66339;47.262;17.144;2023-03-23T05:10:37;99876.28;;;20.13;44.92
77281;BME280;66339;47.262;17.144;2023-03-23T05:13:08;99873.09;;;20.10;45.07
77281;BME280;66339;47.262;17.144;2023-03-23T05:15:35;99872.00;;;20.11;44.94
77281;BME280;66339;47.262;17.144;2023-03-23T05:18:07;99877.88;;;20.14;44.94
77281;BME280;66339;47.262;17.144;2023-03-23T05:20:35;99891.31;;;20.14;44.91
77281;BME280;66339;47.262;17.144;2023-03-23T05:23:01;99875.19;;;20.14;44.84
77281;BME280;66339;47.262;17.144;2023-03-23T05:25:30;99882.16;;;20.15;44.83
77281;BME280;66339;47.262;17.144;2023-03-23T05:27:56;99884.28;;;20.18;44.80
77281;BME280;66339;47.262;17.144;2023-03-23T05:30:28;99885.38;;;20.17;44.80
77281;BME280;66339;47.262;17.144;2023-03-23T05:32:57;99886.94;;;20.18;44.90
77281;BME280;66339;47.262;17.144;2023-03-23T05:35:30;99887.44;;;20.20;44.97
77281;BME280;66339;47.262;17.144;2023-03-23T05:37:59;99893.34;;;20.22;44.77
77281;BME280;66339;47.262;17.144;2023-03-23T05:40:25;99891.75;;;20.21;44.87
77281;BME280;66339;47.262;17.144;2023-03-23T05:42:54;99890.97;;;20.20;44.83
77281;BME280;66339;47.262;17.144;2023-03-23T05:45:20;99890.97;;;20.20;44.84
77281;BME280;66339;47.262;17.144;2023-03-23T05:47:50;99887.44;;;20.20;44.91
77281;BME280;66339;47.262;17.144;2023-03-23T05:50:15;99892.03;;;20.19;44.96
77281;BME280;66339;47.262;17.144;2023-03-23T05:52:44;99886.37;;;20.21;44.98
77281;BME280;66339;47.262;17.144;2023-03-23T05:55:10;99887.97;;;20.22;44.94
77281;BME280;66339;47.262;17.144;2023-03-23T05:57:40;99887.97;;;20.22;44.94
77281;BME280;66339;47.262;17.144;2023-03-23T06:00:12;99894.44;;;20.21;45.02
77281;BME280;66339;47.262;17.144;2023-03-23T06:02:42;99895.22;;;20.21;45.01
77281;BME280;66339;47.262;17.144;2023-03-23T06:05:17;99889.56;;;20.23;45.07
77281;BME280;66339;47.262;17.144;2023-03-23T06:07:49;99892.75;;;20.25;45.01
77281;BME280;66339;47.262;17.144;2023-03-23T06:10:18;99897.56;;;20.28;45.07
77281;BME280;66339;47.262;17.144;2023-03-23T06:12:43;99900.75;;;20.30;45.11
77281;BME280;66339;47.262;17.144;2023-03-23T06:15:09;99900.16;;;20.33;45.15
77281;BME280;66339;47.262;17.144;2023-03-23T06:17:38;99901.19;;;20.37;45.16
77281;BME280;66339;47.262;17.144;2023-03-23T06:20:07;99912.41;;;20.39;45.19
77281;BME280;66339;47.262;17.144;2023-03-23T06:22:37;99918.31;;;20.41;45.18
77281;BME280;66339;47.262;17.144;2023-03-23T06:25:08;99918.53;;;20.45;45.24
77281;BME280;66339;47.262;17.144;2023-03-23T06:27:40;99921.94;;;20.50;45.27
77281;BME280;66339;47.262;17.144;2023-03-23T06:30:13;99923.25;;;20.53;45.21
77281;BME280;66339;47.262;17.144;2023-03-23T06:32:41;99926.16;;;20.56;45.12
77281;BME280;66339;47.262;17.144;2023-03-23T06:35:16;99918.59;;;20.58;45.10
77281;BME280;66339;47.262;17.144;2023-03-23T06:37:45;99931.75;;;20.60;45.09
77281;BME280;66339;47.262;17.144;2023-03-23T06:40:14;99924.19;;;20.62;44.48
77281;BME280;66339;47.262;17.144;2023-03-23T06:42:40;99930.34;;;20.63;43.38
77281;BME280;66339;47.262;17.144;2023-03-23T06:45:09;99934.16;;;20.62;40.00
77281;BME280;66339;47.262;17.144;2023-03-23T06:47:35;99936.41;;;20.54;38.95
77281;BME280;66339;47.262;17.144;2023-03-23T06:50:04;99931.75;;;20.41;38.94
77281;BME280;66339;47.262;17.144;2023-03-23T06:52:29;99937.19;;;20.36;38.82
77281;BME280;66339;47.262;17.144;2023-03-23T06:54:58;99935.06;;;20.33;38.22
77281;BME280;66339;47.262;17.144;2023-03-23T06:57:27;99946.69;;;20.28;37.69
77281;BME280;66339;47.262;17.144;2023-03-23T06:59:53;99941.59;;;20.27;37.55
77281;BME280;66339;47.262;17.144;2023-03-23T07:02:18;99941.69;;;20.22;37.44
77281;BME280;66339;47.262;17.144;2023-03-23T07:04:52;99946.09;;;20.13;37.62
77281;BME280;66339;47.262;17.144;2023-03-23T07:07:18;99942.81;;;20.16;38.87
77281;BME280;66339;47.262;17.144;2023-03-23T07:09:44;99949.44;;;20.23;40.57
77281;BME280;66339;47.262;17.144;2023-03-23T07:12:13;99959.81;;;20.30;42.72
77281;BME280;66339;47.262;17.144;2023-03-23T07:14:42;99961.38;;;20.36;43.70
77281;BME280;66339;47.262;17.144;2023-03-23T07:17:08;99952.72;;;20.39;44.10
77281;BME280;66339;47.262;17.144;2023-03-23T07:19:34;99957.22;;;20.44;44.32
77281;BME280;66339;47.262;17.144;2023-03-23T07:22:00;99950.47;;;20.46;43.84
77281;BME280;66339;47.262;17.144;2023-03-23T07:24:29;99953.94;;;20.47;43.61
77281;BME280;66339;47.262;17.144;2023-03-23T07:27:01;99953.94;;;20.47;44.12
77281;BME280;66339;47.262;17.144;2023-03-23T07:29:31;99953.16;;;20.46;44.02
77281;BME280;66339;47.262;17.144;2023-03-23T07:31:59;99962.25;;;20.50;44.27
77281;BME280;66339;47.262;17.144;2023-03-23T07:34:26;99962.78;;;20.47;44.49
77281;BME280;66339;47.262;17.144;2023-03-23T07:36:52;99957.41;;;20.52;44.74
77281;BME280;66339;47.262;17.144;2023-03-23T07:39:27;99959.22;;;20.57;44.95
77281;BME280;66339;47.262;17.144;2023-03-23T07:41:56;99952.47;;;20.59;44.88
77281;BME280;66339;47.262;17.144;2023-03-23T07:44:28;99963.69;;;20.62;45.15
77281;BME280;66339;47.262;17.144;2023-03-23T07:46:57;99956.66;;;20.66;45.22
77281;BME280;66339;47.262;17.144;2023-03-23T07:49:26;99958.75;;;20.69;45.00
77281;BME280;66339;47.262;17.144;2023-03-23T07:51:52;99957.66;;;20.70;45.28
77281;BME280;66339;47.262;17.144;2023-03-23T07:54:18;99961.94;;;20.71;45.43
77281;BME280;66339;47.262;17.144;2023-03-23T07:56:44;99962.47;;;20.73;45.39
77281;BME280;66339;47.262;17.144;2023-03-23T07:59:11;99954.97;;;20.70;45.28
77281;BME280;66339;47.262;17.144;2023-03-23T08:01:43;99961.66;;;20.72;45.21
77281;BME280;66339;47.262;17.144;2023-03-23T08:04:12;99955.19;;;20.73;45.42
77281;BME280;66339;47.262;17.144;2023-03-23T08:06:43;99952.28;;;20.70;45.43
77281;BME280;66339;47.262;17.144;2023-03-23T08:09:15;99957.66;;;20.70;45.61
77281;BME280;66339;47.262;17.144;2023-03-23T08:11:44;99956.06;;;20.69;45.75
77281;BME280;66339;47.262;17.144;2023-03-23T08:14:16;99960.34;;;20.70;45.96
77281;BME280;66339;47.262;17.144;2023-03-23T08:16:41;99958.47;;;20.70;46.18
77281;BME280;66339;47.262;17.144;2023-03-23T08:19:13;99959.25;;;20.71;46.21
77281;BME280;66339;47.262;17.144;2023-03-23T08:21:39;99962.25;;;20.69;46.15
77281;BME280;66339;47.262;17.144;2023-03-23T08:25:21;99956.66;;;21.31;45.44
77281;BME280;66339;47.262;17.144;2023-03-23T08:27:50;99956.66;;;21.31;45.44
77281;BME280;66339;47.262;17.144;2023-03-23T08:30:20;99964.28;;;20.77;46.71
77281;BME280;66339;47.262;17.144;2023-03-23T08:32:56;99963.47;;;20.77;47.07
77281;BME280;66339;47.262;17.144;2023-03-23T08:35:33;99965.84;;;20.78;47.13
77281;BME280;66339;47.262;17.144;2023-03-23T08:38:05;99963.69;;;20.80;46.99
77281;BME280;66339;47.262;17.144;2023-03-23T08:40:31;99959.09;;;20.81;47.04
77281;BME280;66339;47.262;17.144;2023-03-23T08:42:59;99954.75;;;20.85;46.90
77281;BME280;66339;47.262;17.144;2023-03-23T08:45:29;99966.00;;;20.87;46.24
77281;BME280;66339;47.262;17.144;2023-03-23T08:47:58;99961.72;;;20.86;46.21
77281;BME280;66339;47.262;17.144;2023-03-23T08:50:32;99967.69;;;20.83;46.31
77281;BME280;66339;47.262;17.144;2023-03-23T08:53:03;99971.44;;;20.82;46.31
77281;BME280;66339;47.262;17.144;2023-03-23T08:55:30;99968.28;;;20.80;46.30
77281;BME280;66339;47.262;17.144;2023-03-23T08:57:56;99966.06;;;20.82;46.29
77281;BME280;66339;47.262;17.144;2023-03-23T09:00:25;99971.22;;;20.78;46.32
77281;BME280;66339;47.262;17.144;2023-03-23T09:02:55;99970.44;;;20.78;46.33
77281;BME280;66339;47.262;17.144;2023-03-23T09:05:26;99968.31;;;20.75;46.35
77281;BME280;66339;47.262;17.144;2023-03-23T09:07:56;99970.75;;;20.76;46.31
77281;BME280;66339;47.262;17.144;2023-03-23T09:10:22;99960.25;;;20.75;46.27
77281;BME280;66339;47.262;17.144;2023-03-23T09:12:55;99965.44;;;20.71;46.32
77281;BME280;66339;47.262;17.144;2023-03-23T09:15:27;99961.66;;;20.72;46.39
77281;BME280;66339;47.262;17.144;2023-03-23T09:17:58;99962.94;;;20.75;46.37
77281;BME280;66339;47.262;17.144;2023-03-23T09:20:27;99956.00;;;20.74;46.48
77281;BME280;66339;47.262;17.144;2023-03-23T09:22:57;99953.31;;;20.74;46.45
77281;BME280;66339;47.262;17.144;2023-03-23T09:25:27;99953.25;;;20.79;46.24
77281;BME280;66339;47.262;17.144;2023-03-23T09:27:59;99948.34;;;20.81;46.24
77281;BME280;66339;47.262;17.144;2023-03-23T09:30:33;99953.25;;;20.79;46.25
77281;BME280;66339;47.262;17.144;2023-03-23T09:33:06;99958.31;;;20.80;46.20
77281;BME280;66339;47.262;17.144;2023-03-23T09:35:32;99951.56;;;20.83;46.09
77281;BME280;66339;47.262;17.144;2023-03-23T09:38:02;99953.94;;;20.84;46.10
77281;BME280;66339;47.262;17.144;2023-03-23T09:40:35;99952.56;;;20.87;46.05
77281;BME280;66339;47.262;17.144;2023-03-23T09:48:49;99956.31;;;20.86;45.94
77281;BME280;66339;47.262;17.144;2023-03-23T09:52:02;99954.25;;;20.83;46.07
77281;BME280;66339;47.262;17.144;2023-03-23T09:54:18;99961.50;;;20.82;46.13
77281;BME280;66339;47.262;17.144;2023-03-23T09:56:51;99963.37;;;20.82;45.95
77281;BME280;66339;47.262;17.144;2023-03-23T09:59:29;99954.44;;;20.87;45.78
77281;BME280;66339;47.262;17.144;2023-03-23T10:02:27;99954.16;;;20.88;45.87
77281;BME280;66339;47.262;17.144;2023-03-23T10:04:58;99945.00;;;20.89;45.75
77281;BME280;66339;47.262;17.144;2023-03-23T10:07:30;99943.91;;;20.90;45.70
77281;BME280;66339;47.262;17.144;2023-03-23T10:10:00;99935.84;;;20.90;45.61
77281;BME280;66339;47.262;17.144;2023-03-23T10:15:40;99936.84;;;20.94;45.50
77281;BME280;66339;47.262;17.144;2023-03-23T10:18:30;99939.03;;;20.92;45.52
77281;BME280;66339;47.262;17.144;2023-03-23T10:21:01;99935.25;;;20.93;45.58
77281;BME280;66339;47.262;17.144;2023-03-23T10:23:35;99931.47;;;20.94;45.63
77281;BME280;66339;47.262;17.144;2023-03-23T10:28:56;99933.06;;;20.95;44.85
77281;BME280;66339;47.262;17.144;2023-03-23T10:31:31;99923.91;;;20.96;42.83
77281;BME280;66339;47.262;17.144;2023-03-23T10:34:45;99915.84;;;20.96;42.55
77281;BME280;66339;47.262;17.144;2023-03-23T10:37:36;99923.34;;;20.99;42.06
77281;BME280;66339;47.262;17.144;2023-03-23T10:39:54;99923.34;;;20.99;42.33
77281;BME280;66339;47.262;17.144;2023-03-23T10:42:33;99922.72;;;21.02;41.27
77281;BME280;66339;47.262;17.144;2023-03-23T10:48:32;99923.34;;;20.99;41.35
77281;BME280;66339;47.262;17.144;2023-03-23T10:51:14;99909.56;;;21.01;42.37
77281;BME280;66339;47.262;17.144;2023-03-23T10:54:10;99905.50;;;21.03;42.51
77281;BME280;66339;47.262;17.144;2023-03-23T10:59:42;99902.72;;;21.08;42.84
77281;BME280;66339;47.262;17.144;2023-03-23T11:02:22;99904.84;;;21.12;43.61
77281;BME280;66339;47.262;17.144;2023-03-23T11:05:12;99909.91;;;21.13;43.82
77281;BME280;66339;47.262;17.144;2023-03-23T11:07:54;99900.94;;;21.18;43.83
77281;BME280;66339;47.262;17.144;2023-03-23T11:10:39;99891.78;;;21.19;43.90
77281;BME280;66339;47.262;17.144;2023-03-23T11:13:15;99888.00;;;21.20;44.03
77281;BME280;66339;47.262;17.144;2023-03-23T11:15:49;99890.69;;;21.20;44.02
77281;BME280;66339;47.262;17.144;2023-03-23T11:21:05;99895.47;;;21.23;44.32
77281;BME280;66339;47.262;17.144;2023-03-23T11:23:43;99897.66;;;21.21;44.33
77281;BME280;66339;47.262;17.144;2023-03-23T11:26:51;99883.09;;;21.22;44.33
77281;BME280;66339;47.262;17.144;2023-03-23T11:29:26;99880.94;;;21.24;44.34
77281;BME280;66339;47.262;17.144;2023-03-23T11:32:13;99873.19;;;21.22;44.49
77281;BME280;66339;47.262;17.144;2023-03-23T11:34:57;99872.34;;;21.22;44.65
77281;BME280;66339;47.262;17.144;2023-03-23T11:37:32;99883.09;;;21.22;44.81
77281;BME280;66339;47.262;17.144;2023-03-23T11:40:23;99877.13;;;21.25;44.90
77281;BME280;66339;47.262;17.144;2023-03-23T11:42:56;99874.19;;;21.26;44.99
77281;BME280;66339;47.262;17.144;2023-03-23T11:45:33;99877.13;;;21.25;44.99
77281;BME280;66339;47.262;17.144;2023-03-23T11:50:55;99869.59;;;21.27;45.17
77281;BME280;66339;47.262;17.144;2023-03-23T11:53:45;99872.88;;;21.24;45.08
77281;BME280;66339;47.262;17.144;2023-03-23T11:56:23;99863.22;;;21.23;45.14
77281;BME280;66339;47.262;17.144;2023-03-23T11:58:55;99864.28;;;21.22;45.19
77281;BME280;66339;47.262;17.144;2023-03-23T12:12:18;99826.84;;;21.12;45.44
77281;BME280;66339;47.262;17.144;2023-03-23T12:20:17;99823.06;;;21.13;45.39
77281;BME280;66339;47.262;17.144;2023-03-23T12:23:03;99823.56;;;21.15;45.30
77281;BME280;66339;47.262;17.144;2023-03-23T12:26:01;99806.31;;;21.16;45.37
77281;BME280;66339;47.262;17.144;2023-03-23T12:28:37;99811.41;;;21.17;45.56
77281;BME280;66339;47.262;17.144;2023-03-23T12:31:25;99815.97;;;21.17;45.96
77281;BME280;66339;47.262;17.144;2023-03-23T12:34:26;99813.59;;;21.15;45.95
77281;BME280;66339;47.262;17.144;2023-03-23T12:48:40;99820.25;;;21.18;45.87
77281;BME280;66339;47.262;17.144;2023-03-23T12:51:10;99813.50;;;21.20;45.94
77281;BME280;66339;47.262;17.144;2023-03-23T12:56:46;99807.81;;;21.22;45.99
77281;BME280;66339;47.262;17.144;2023-03-23T13:02:30;99791.06;;;21.25;45.72
77281;BME280;66339;47.262;17.144;2023-03-23T13:04:40;99795.84;;;21.28;45.39
77281;BME280;66339;47.262;17.144;2023-03-23T13:07:14;99794.28;;;21.27;45.60
77281;BME280;66339;47.262;17.144;2023-03-23T13:12:14;99790.47;;;21.28;45.79
77281;BME280;66339;47.262;17.144;2023-03-23T13:31:36;99785.09;;;21.28;45.76
77281;BME280;66339;47.262;17.144;2023-03-23T13:34:15;99786.47;;;21.25;45.89
77281;BME280;66339;47.262;17.144;2023-03-23T13:36:59;99779.84;;;21.23;45.93
77281;BME280;66339;47.262;17.144;2023-03-23T13:39:29;99772.66;;;21.18;46.06
77281;BME280;66339;47.262;17.144;2023-03-23T13:47:28;99763.78;;;21.18;46.25
77281;BME280;66339;47.262;17.144;2023-03-23T13:50:10;99755.63;;;21.23;46.11
77281;BME280;66339;47.262;17.144;2023-03-23T13:55:29;99744.25;;;21.26;46.04
77281;BME280;66339;47.262;17.144;2023-03-23T14:03:27;99750.13;;;21.28;45.89
77281;BME280;66339;47.262;17.144;2023-03-23T14:06:03;99750.63;;;21.30;45.86
77281;BME280;66339;47.262;17.144;2023-03-23T14:18:55;99750.03;;;21.33;45.91
77281;BME280;66339;47.262;17.144;2023-03-23T14:24:31;99737.97;;;21.30;45.82
77281;BME280;66339;47.262;17.144;2023-03-23T14:29:36;99732.88;;;21.29;45.86
77281;BME280;66339;47.262;17.144;2023-03-23T14:32:17;99732.88;;;21.29;45.46
77281;BME280;66339;47.262;17.144;2023-03-23T14:34:50;99730.50;;;21.27;45.48
77281;BME280;66339;47.262;17.144;2023-03-23T14:37:19;99740.47;;;21.27;45.74
77281;BME280;66339;47.262;17.144;2023-03-23T14:39:54;99742.66;;;21.25;45.72
77281;BME280;66339;47.262;17.144;2023-03-23T14:42:45;99738.88;;;21.26;45.76
77281;BME280;66339;47.262;17.144;2023-03-23T14:45:17;99742.66;;;21.25;45.82
77281;BME280;66339;47.262;17.144;2023-03-23T14:47:58;99749.44;;;21.22;45.93
77281;BME280;66339;47.262;17.144;2023-03-23T14:50:40;99749.44;;;21.22;46.03
77281;BME280;66339;47.262;17.144;2023-03-23T14:53:25;99753.41;;;21.25;46.06
77281;BME280;66339;47.262;17.144;2023-03-23T14:55:52;99749.44;;;21.22;46.14
77281;BME280;66339;47.262;17.144;2023-03-23T14:58:22;99753.41;;;21.25;46.19
77281;BME280;66339;47.262;17.144;2023-03-23T15:01:18;99753.41;;;21.25;46.10
77281;BME280;66339;47.262;17.144;2023-03-23T15:04:03;99755.50;;;21.28;45.93
77281;BME280;66339;47.262;17.144;2023-03-23T15:06:34;99751.22;;;21.27;46.01
77281;BME280;66339;47.262;17.144;2023-03-23T15:09:11;99751.03;;;21.23;46.35
77281;BME280;66339;47.262;17.144;2023-03-23T15:11:42;99753.53;;;21.20;46.21
77281;BME280;66339;47.262;17.144;2023-03-23T15:14:17;99751.84;;;21.24;46.24
77281;BME280;66339;47.262;17.144;2023-03-23T15:16:49;99756.69;;;21.22;46.25
77281;BME280;66339;47.262;17.144;2023-03-23T15:19:37;99750.25;;;21.23;46.11
77281;BME280;66339;47.262;17.144;2023-03-23T15:22:45;99754.31;;;21.20;46.27
77281;BME280;66339;47.262;17.144;2023-03-23T15:25:33;99759.69;;;21.20;46.20
77281;BME280;66339;47.262;17.144;2023-03-23T15:28:21;99757.22;;;21.24;45.91
77281;BME280;66339;47.262;17.144;2023-03-23T15:31:02;99765.28;;;21.24;45.86
77281;BME280;66339;47.262;17.144;2023-03-23T15:34:02;99764.97;;;21.25;45.62
77281;BME280;66339;47.262;17.144;2023-03-23T15:36:34;99764.37;;;21.28;45.67